Time;durP1;ratioP1;P1;durP2;ratioP2;P2;SDS_P1;SDS_P2;PMS_P1;PMS_P2;Temp;Humidity;BMP_temperature;BMP_pressure;BME280_temperature;BME280_humidity;BME280_pressure;Samples;Min_cycle;Max_cycle;Signal;HPM_P1;HPM_P2
2023/08/07 00:00:11;;;;;;;5.57;2.05;;;;;;;12.79;100.00;101232.56;5047460;28;20029;-73
2023/08/07 00:02:37;;;;;;;3.72;1.48;;;;;;;12.81;100.00;101226.97;5032447;28;20044;-73
2023/08/07 00:05:02;;;;;;;5.85;2.28;;;;;;;12.82;100.00;101232.16;5032333;28;20528;-73
2023/08/07 00:07:27;;;;;;;8.60;2.13;;;;;;;12.81;100.00;101229.66;5032338;28;20033;-73
2023/08/07 00:09:53;;;;;;;7.68;2.55;;;;;;;12.82;100.00;101231.34;5032262;28;20021;-73
2023/08/07 00:12:18;;;;;;;7.40;1.70;;;;;;;12.83;100.00;101238.31;5032160;28;20044;-73
2023/08/07 00:14:44;;;;;;;7.25;1.98;;;;;;;12.83;100.00;101228.44;5032182;28;20025;-73
2023/08/07 00:17:09;;;;;;;10.63;1.83;;;;;;;12.85;100.00;101233.59;5032078;28;20566;-73
2023/08/07 00:19:35;;;;;;;5.70;2.15;;;;;;;12.84;100.00;101223.94;5031713;28;20099;-73
2023/08/07 00:22:01;;;;;;;5.28;1.60;;;;;;;12.86;100.00;101232.56;5047634;28;20067;-74
2023/08/07 00:24:26;;;;;;;6.10;1.90;;;;;;;12.86;100.00;101238.75;5031876;28;20052;-74
2023/08/07 00:26:51;;;;;;;2.45;1.45;;;;;;;12.86;100.00;101230.72;5032008;28;20042;-74
2023/08/07 00:29:17;;;;;;;2.92;1.30;;;;;;;12.87;100.00;101239.59;5032124;28;20095;-73
2023/08/07 00:31:42;;;;;;;7.00;1.80;;;;;;;12.86;100.00;101233.41;5032003;28;20025;-74
2023/08/07 00:34:09;;;;;;;8.60;2.03;;;;;;;12.88;100.00;101230.50;5031849;28;20492;-74
2023/08/07 00:36:34;;;;;;;19.52;2.28;;;;;;;12.86;100.00;101235.25;5031916;28;20128;-73
2023/08/07 00:39:00;;;;;;;4.95;1.98;;;;;;;12.87;100.00;101239.59;5046922;28;20583;-73
2023/08/07 00:41:26;;;;;;;7.13;2.03;;;;;;;12.87;100.00;101234.22;5047054;28;20037;-73
2023/08/07 00:43:51;;;;;;;5.25;1.73;;;;;;;12.85;100.00;101239.78;5031619;28;20021;-74
2023/08/07 00:46:17;;;;;;;4.57;1.20;;;;;;;12.83;100.00;101238.31;5031245;28;20079;-73
2023/08/07 00:48:43;;;;;;;6.20;1.55;;;;;;;12.77;100.00;101229.25;5047134;28;20534;-73
2023/08/07 00:51:09;;;;;;;7.47;2.08;;;;;;;12.82;100.00;101234.00;5030073;28;20030;-73
2023/08/07 00:53:38;;;;;;;6.20;1.92;;;;;;;12.80;100.00;101234.19;5031907;28;20037;-73
2023/08/07 00:56:04;;;;;;;5.20;1.83;;;;;;;12.83;100.00;101241.00;5031170;28;20114;-73
2023/08/07 00:58:30;;;;;;;11.63;3.50;;;;;;;12.84;100.00;101242.66;5031328;28;20030;-73
2023/08/07 01:00:56;;;;;;;4.03;1.73;;;;;;;12.83;100.00;101239.13;5031360;28;20435;-73
2023/08/07 01:03:21;;;;;;;3.58;2.42;;;;;;;12.84;100.00;101242.66;5031409;28;20030;-73
2023/08/07 01:05:46;;;;;;;8.60;1.63;;;;;;;12.84;100.00;101240.81;5031219;28;20048;-73
2023/08/07 01:08:12;;;;;;;9.18;1.95;;;;;;;12.86;100.00;101240.59;5031271;28;20021;-73
2023/08/07 01:10:59;;;;;;;4.93;1.80;;;;;;;12.86;100.00;101248.63;5031179;28;20033;-73
2023/08/07 01:13:31;;;;;;;2.45;1.33;;;;;;;12.86;100.00;101244.13;5030968;28;20030;-74
2023/08/07 01:16:01;;;;;;;6.72;1.40;;;;;;;12.87;100.00;101244.94;5046122;28;20083;-73
2023/08/07 01:18:27;;;;;;;6.95;1.98;;;;;;;12.84;100.00;101243.47;5031016;28;20103;-73
2023/08/07 01:20:52;;;;;;;5.90;2.13;;;;;;;12.86;100.00;101252.16;5030960;28;20029;-73
2023/08/07 01:23:17;;;;;;;5.15;1.63;;;;;;;12.89;100.00;101250.88;5030845;28;20053;-73
2023/08/07 01:25:43;;;;;;;7.10;1.70;;;;;;;12.88;100.00;101254.59;5030906;28;20551;-73
2023/08/07 01:28:30;;;;;;;4.10;1.60;;;;;;;12.87;100.00;101250.28;5046141;28;20041;-73
2023/08/07 01:30:59;;;;;;;8.18;3.30;;;;;;;12.91;100.00;101251.53;5030939;28;20527;-73
2023/08/07 01:33:34;;;;;;;3.95;1.75;;;;;;;12.90;100.00;101256.06;5030707;28;20052;-73
2023/08/07 01:36:06;;;;;;;7.32;2.60;;;;;;;12.92;100.00;101256.69;5030619;28;20022;-73
2023/08/07 01:38:33;;;;;;;7.90;2.65;;;;;;;12.97;100.00;101264.13;5030641;28;20033;-73
2023/08/07 01:41:00;;;;;;;13.25;3.38;;;;;;;12.97;100.00;101268.63;5030553;28;20033;-73
2023/08/07 01:43:26;;;;;;;9.32;2.78;;;;;;;12.99;100.00;101270.06;5030612;28;20120;-73
2023/08/07 01:45:52;;;;;;;9.75;2.80;;;;;;;12.94;100.00;101251.97;5030501;28;20034;-74
2023/08/07 01:48:17;;;;;;;9.57;2.42;;;;;;;12.93;100.00;101252.97;5030523;28;20047;-73
2023/08/07 01:50:43;;;;;;;12.52;2.22;;;;;;;13.06;100.00;101265.56;5030480;28;20022;-73
2023/08/07 01:53:08;;;;;;;12.32;2.53;;;;;;;13.04;100.00;101262.25;5029054;28;20076;-73
2023/08/07 01:55:33;;;;;;;9.18;2.88;;;;;;;13.07;100.00;101263.69;5030426;28;20029;-73
2023/08/07 01:57:59;;;;;;;8.48;2.47;;;;;;;13.07;100.00;101272.59;5029771;28;20385;-73
2023/08/07 02:00:24;;;;;;;7.13;1.98;;;;;;;13.04;100.00;101275.66;5030069;28;20029;-73
2023/08/07 02:02:50;;;;;;;8.95;2.75;;;;;;;13.03;100.00;101273.19;5030229;28;20052;-73
2023/08/07 02:05:15;;;;;;;19.73;3.05;;;;;;;13.06;100.00;101289.66;5030196;28;20071;-73
2023/08/07 02:07:41;;;;;;;4.65;1.65;;;;;;;13.01;100.00;101277.91;5030289;28;20111;-73
2023/08/07 02:10:07;;;;;;;10.23;1.83;;;;;;;12.96;100.00;101281.19;5030186;28;20028;-73
2023/08/07 02:12:33;;;;;;;5.90;2.13;;;;;;;12.91;100.00;101286.31;5030223;28;20111;-73
2023/08/07 02:14:59;;;;;;;13.30;2.97;;;;;;;12.83;100.00;101281.16;5030018;28;20041;-74
2023/08/07 02:17:28;;;;;;;7.47;1.83;;;;;;;12.82;100.00;101284.88;5030108;28;20060;-73
2023/08/07 02:19:53;;;;;;;7.72;2.92;;;;;;;12.77;100.00;101276.63;5029992;28;20037;-73
2023/08/07 02:22:19;;;;;;;10.27;2.92;;;;;;;12.76;100.00;101282.97;5029871;28;20175;-73
2023/08/07 02:24:44;;;;;;;6.30;1.70;;;;;;;12.75;100.00;101290.19;5029769;28;20520;-73
2023/08/07 02:27:10;;;;;;;6.47;2.33;;;;;;;12.76;100.00;101283.81;5045239;28;20100;-74
2023/08/07 02:29:35;;;;;;;7.90;2.58;;;;;;;12.72;100.00;101285.22;5029717;28;20419;-74
2023/08/07 02:32:04;;;;;;;5.20;1.92;;;;;;;12.74;100.00;101295.75;5029735;28;20037;-73
2023/08/07 02:34:30;;;;;;;3.92;1.48;;;;;;;12.74;100.00;101299.25;5044970;28;20033;-73
2023/08/07 02:36:56;;;;;;;8.20;1.63;;;;;;;12.74;100.00;101293.91;5029780;28;20492;-74
2023/08/07 02:39:22;;;;;;;6.97;2.15;;;;;;;12.76;100.00;101293.69;5029578;28;20026;-73
2023/08/07 02:41:47;;;;;;;8.20;3.13;;;;;;;12.76;100.00;101296.34;5029647;28;20073;-73
2023/08/07 02:44:12;;;;;;;6.65;2.10;;;;;;;12.77;100.00;101295.34;5029647;28;20028;-74
2023/08/07 02:46:38;;;;;;;7.20;2.08;;;;;;;12.78;100.00;101291.63;5029637;28;20041;-74
2023/08/07 02:49:04;;;;;;;8.68;2.45;;;;;;;12.78;100.00;101294.31;5029679;28;20033;-73
2023/08/07 02:51:30;;;;;;;9.18;2.65;;;;;;;12.78;100.00;101294.31;5029290;28;20052;-73
2023/08/07 02:53:55;;;;;;;10.43;2.13;;;;;;;12.78;100.00;101291.63;5029507;28;20045;-73
2023/08/07 02:56:20;;;;;;;7.85;2.92;;;;;;;12.80;100.00;101290.41;5029373;28;20060;-73
2023/08/07 02:58:46;;;;;;;9.35;2.67;;;;;;;12.82;100.00;101288.38;5028056;28;20076;-74
2023/08/07 03:01:11;;;;;;;11.15;2.78;;;;;;;12.83;100.00;101291.84;5029272;28;20029;-74
2023/08/07 03:03:37;;;;;;;11.32;2.83;;;;;;;12.83;100.00;101297.22;5029456;28;20041;-74
2023/08/07 03:06:03;;;;;;;5.68;2.05;;;;;;;12.83;100.00;101289.19;5029516;28;20036;-74
2023/08/07 03:08:28;;;;;;;10.07;3.35;;;;;;;12.82;100.00;101299.06;5031580;28;20480;-74
2023/08/07 03:10:56;;;;;;;6.85;1.77;;;;;;;12.86;100.00;101296.81;5033419;28;20075;-73
2023/08/07 03:13:22;;;;;;;10.63;2.50;;;;;;;12.85;100.00;101287.13;5033287;28;20052;-73
2023/08/07 03:15:49;;;;;;;10.45;2.63;;;;;;;12.85;100.00;101292.50;5033342;28;20036;-73
2023/08/07 03:18:15;;;;;;;13.50;2.42;;;;;;;12.86;100.00;101280.75;5033326;28;20034;-73
2023/08/07 03:20:41;;;;;;;11.02;3.45;;;;;;;12.88;100.00;101281.38;5033187;28;20111;-73
2023/08/07 03:23:06;;;;;;;7.53;1.95;;;;;;;12.88;100.00;101274.16;5033013;28;20290;-73
2023/08/07 03:25:32;;;;;;;8.32;2.40;;;;;;;12.90;100.00;101277.47;5033221;28;20032;-73
2023/08/07 03:27:57;;;;;;;11.13;2.42;;;;;;;12.92;100.00;101286.13;5048639;28;20064;-73
2023/08/07 03:30:22;;;;;;;6.82;2.30;;;;;;;12.93;100.00;101282.41;5033190;28;20037;-73
2023/08/07 03:32:48;;;;;;;3.97;1.75;;;;;;;12.96;100.00;101281.19;5033084;28;20029;-73
2023/08/07 03:35:13;;;;;;;5.55;1.83;;;;;;;12.99;100.00;101275.44;5033051;28;20044;-73
2023/08/07 03:37:38;;;;;;;4.05;1.92;;;;;;;12.99;100.00;101275.44;5032771;28;20116;-73
2023/08/07 03:40:04;;;;;;;12.70;2.85;;;;;;;13.00;100.00;101274.41;5032542;28;20471;-74
2023/08/07 03:42:30;;;;;;;5.20;2.47;;;;;;;13.00;100.00;101281.63;5031709;28;20044;-73
2023/08/07 03:44:55;;;;;;;9.18;2.25;;;;;;;13.01;100.00;101283.28;5032841;28;20067;-73
2023/08/07 03:47:20;;;;;;;15.88;2.38;;;;;;;13.00;100.00;101278.94;5048176;28;20107;-73
2023/08/07 03:49:46;;;;;;;6.90;2.40;;;;;;;13.00;100.00;101282.44;5032898;28;20428;-73
2023/08/07 03:52:11;;;;;;;6.22;1.88;;;;;;;13.00;100.00;101284.31;5031149;28;20034;-73
2023/08/07 03:54:37;;;;;;;19.02;2.65;;;;;;;13.00;100.00;101281.63;5032738;28;20388;-73
2023/08/07 03:57:02;;;;;;;6.82;2.65;;;;;;;12.97;100.00;101276.66;5032718;28;20377;-73
2023/08/07 03:59:27;;;;;;;17.10;4.78;;;;;;;12.98;100.00;101281.81;5031250;28;20573;-73
2023/08/07 04:01:53;;;;;;;5.60;2.30;;;;;;;12.96;100.00;101289.22;5031021;28;20065;-73
2023/08/07 04:04:18;;;;;;;12.55;3.33;;;;;;;12.95;100.00;101290.25;5032318;28;20037;-73
2023/08/07 04:06:43;;;;;;;10.13;1.98;;;;;;;12.91;100.00;101281.78;5032406;28;20040;-73
2023/08/07 04:09:10;;;;;;;8.75;2.88;;;;;;;12.85;100.00;101268.41;5032428;28;20044;-73
2023/08/07 04:11:36;;;;;;;12.20;4.40;;;;;;;12.93;100.00;101276.25;5032052;28;20338;-73
2023/08/07 04:14:01;;;;;;;8.60;2.75;;;;;;;12.94;100.00;101275.22;5031428;28;20036;-73
2023/08/07 04:16:27;;;;;;;7.32;2.05;;;;;;;12.94;100.00;101288.59;5031692;28;20045;-73
2023/08/07 04:18:52;;;;;;;7.93;1.95;;;;;;;12.94;100.00;101275.22;5030670;28;20455;-73
2023/08/07 04:21:17;;;;;;;6.55;2.72;;;;;;;12.94;100.00;101278.72;5031181;28;20037;-73
2023/08/07 04:23:43;;;;;;;10.55;2.70;;;;;;;12.86;100.00;101265.53;5031874;28;20084;-73
2023/08/07 04:26:08;;;;;;;3.88;1.85;;;;;;;12.98;100.00;101279.16;5030737;28;20124;-73
2023/08/07 04:28:33;;;;;;;8.07;2.28;;;;;;;13.01;100.00;101284.09;5030655;28;20029;-73
2023/08/07 04:30:59;;;;;;;9.40;2.72;;;;;;;13.01;100.00;101281.41;5031927;28;20025;-73
2023/08/07 04:33:24;;;;;;;7.38;2.78;;;;;;;12.97;100.00;101277.50;5031801;28;20028;-73
2023/08/07 04:35:50;;;;;;;7.47;2.40;;;;;;;12.99;100.00;101274.59;5031833;28;20515;-73
2023/08/07 04:38:16;;;;;;;6.65;1.48;;;;;;;13.03;100.00;101291.94;5031604;28;20543;-73
2023/08/07 04:40:49;;;;;;;7.80;3.08;;;;;;;13.03;100.00;101292.75;5031538;28;20033;-73
2023/08/07 04:43:15;;;;;;;9.68;3.72;;;;;;;13.03;100.00;101298.09;5029631;28;20389;-73
2023/08/07 04:45:41;;;;;;;9.50;2.85;;;;;;;13.02;100.00;101309.84;5030445;28;20037;-73
2023/08/07 04:48:08;;;;;;;10.30;2.13;;;;;;;13.02;100.00;101301.81;5030574;28;20057;-73
2023/08/07 04:50:33;;;;;;;9.20;2.40;;;;;;;13.04;100.00;101296.25;5031571;28;20033;-73
2023/08/07 04:52:59;;;;;;;4.25;1.73;;;;;;;13.04;100.00;101298.94;5031087;28;20041;-73
2023/08/07 04:55:25;;;;;;;5.97;1.73;;;;;;;13.04;100.00;101301.59;5031488;28;20055;-73
2023/08/07 04:57:54;;;;;;;5.13;2.60;;;;;;;13.06;100.00;101297.69;5031627;28;20037;-73
2023/08/07 05:00:19;;;;;;;4.32;2.00;;;;;;;13.04;100.00;101299.75;5031406;28;20036;-73
2023/08/07 05:02:44;;;;;;;6.82;1.98;;;;;;;13.10;100.00;101306.16;5030979;28;20420;-73
2023/08/07 05:05:10;;;;;;;8.82;2.90;;;;;;;13.12;100.00;101310.28;5046631;28;20040;-73
2023/08/07 05:07:35;;;;;;;5.13;2.08;;;;;;;13.13;100.00;101311.94;5031364;28;20090;-73
2023/08/07 05:10:02;;;;;;;10.05;3.17;;;;;;;13.15;100.00;101317.06;5031129;28;20030;-73
2023/08/07 05:12:27;;;;;;;7.95;1.75;;;;;;;13.14;100.00;101304.72;5031160;28;20071;-73
2023/08/07 05:14:53;;;;;;;7.45;2.47;;;;;;;13.16;100.00;101308.03;5046539;28;20510;-73
2023/08/07 05:17:18;;;;;;;2.78;1.60;;;;;;;13.08;100.00;101301.00;5031107;28;20060;-73
2023/08/07 05:19:43;;;;;;;4.88;1.80;;;;;;;13.19;100.00;101314.84;5030808;28;20381;-73
2023/08/07 05:22:09;;;;;;;8.18;2.15;;;;;;;13.20;100.00;101317.28;5030949;28;20025;-73
2023/08/07 05:24:38;;;;;;;5.65;1.85;;;;;;;13.19;100.00;101317.50;5030962;28;20058;-74
2023/08/07 05:27:05;;;;;;;6.38;2.15;;;;;;;13.20;100.00;101322.66;5045285;28;20033;-74
2023/08/07 05:29:30;;;;;;;7.63;1.85;;;;;;;13.20;100.00;101329.88;5030758;28;20038;-74
2023/08/07 05:31:56;;;;;;;5.57;1.40;;;;;;;13.19;100.00;101338.94;5029831;28;20096;-73
2023/08/07 05:34:21;;;;;;;8.55;2.63;;;;;;;13.13;100.00;101336.03;5046045;28;20057;-74
2023/08/07 05:36:46;;;;;;;8.52;1.75;;;;;;;13.13;100.00;101346.75;5030885;28;20526;-74
2023/08/07 05:39:13;;;;;;;16.13;2.25;;;;;;;13.13;100.00;101348.63;5029387;28;20145;-74
2023/08/07 05:41:38;;;;;;;7.88;2.35;;;;;;;13.08;100.00;101343.03;5030439;28;20045;-73
2023/08/07 05:44:05;;;;;;;9.73;2.63;;;;;;;13.09;100.00;101348.16;5030690;28;20029;-73
2023/08/07 05:46:30;;;;;;;5.90;1.92;;;;;;;13.07;100.00;101344.91;5030759;28;20104;-73
2023/08/07 05:48:56;;;;;;;7.50;2.22;;;;;;;13.13;100.00;101360.16;5030493;28;20040;-73
2023/08/07 05:51:21;;;;;;;11.70;2.58;;;;;;;13.18;100.00;101362.22;5030290;28;20385;-73
2023/08/07 05:53:47;;;;;;;3.95;1.50;;;;;;;13.20;100.00;101348.63;5030604;28;20049;-73
2023/08/07 05:56:12;;;;;;;10.85;1.83;;;;;;;13.22;100.00;101351.94;5030355;28;20021;-73
2023/08/07 05:58:37;;;;;;;12.02;2.72;;;;;;;13.25;100.00;101359.56;5030222;28;20038;-73
2023/08/07 06:01:03;;;;;;;6.82;2.80;;;;;;;13.24;100.00;101364.09;5030405;28;20031;-74
2023/08/07 06:03:28;;;;;;;4.05;1.73;;;;;;;13.24;100.00;101368.63;5030598;28;20125;-73
2023/08/07 06:05:53;;;;;;;7.97;2.13;;;;;;;13.23;100.00;101357.09;5045396;28;20496;-73
2023/08/07 06:08:19;;;;;;;4.18;1.65;;;;;;;13.23;100.00;101362.44;5030132;28;20025;-73
2023/08/07 06:10:44;;;;;;;8.18;1.92;;;;;;;13.23;100.00;101366.97;5029898;28;21099;-73
2023/08/07 06:13:10;;;;;;;11.30;3.65;;;;;;;13.14;100.00;101353.75;5030080;28;20057;-74
2023/08/07 06:15:35;;;;;;;9.18;2.15;;;;;;;13.29;100.00;101368.88;5030081;28;20380;-73
2023/08/07 06:18:00;;;;;;;6.03;2.10;;;;;;;13.27;100.00;101358.34;5030086;28;20041;-73
2023/08/07 06:20:26;;;;;;;8.73;2.75;;;;;;;13.30;100.00;101376.69;5028539;28;20486;-73
2023/08/07 06:22:51;;;;;;;4.15;1.77;;;;;;;13.36;100.00;101373.22;5044933;28;20049;-74
2023/08/07 06:25:19;;;;;;;9.70;3.05;;;;;;;13.38;100.00;101381.88;5029890;28;20075;-71
2023/08/07 06:27:44;;;;;;;3.08;1.83;;;;;;;13.41;100.00;101374.47;5029836;28;20088;-73
2023/08/07 06:30:10;;;;;;;12.27;2.58;;;;;;;13.40;100.00;101373.66;5029865;28;20452;-74
2023/08/07 06:32:36;;;;;;;9.68;2.55;;;;;;;13.45;100.00;101378.41;5029979;28;20091;-74
2023/08/07 06:35:02;;;;;;;15.48;3.47;;;;;;;13.41;100.00;101375.28;5029883;28;20025;-74
2023/08/07 06:37:28;;;;;;;7.75;3.53;;;;;;;13.42;100.00;101371.59;5018891;28;20026;-74
2023/08/07 06:39:53;;;;;;;5.00;2.10;;;;;;;13.51;100.00;101378.41;5029627;28;20037;-74
2023/08/07 06:42:19;;;;;;;13.55;2.60;;;;;;;13.57;100.00;101390.16;5027880;28;20045;-74
2023/08/07 06:44:44;;;;;;;8.05;2.95;;;;;;;13.59;100.00;101391.59;5029457;28;20025;-74
2023/08/07 06:47:10;;;;;;;10.15;2.20;;;;;;;13.65;100.00;101399.88;5029271;28;20731;-71
2023/08/07 06:49:36;;;;;;;2.80;1.90;;;;;;;13.66;100.00;101397.00;5023331;28;20029;-72
2023/08/07 06:52:02;;;;;;;5.60;1.40;;;;;;;13.69;100.00;101393.91;5037796;28;20030;-72
2023/08/07 06:54:27;;;;;;;10.02;2.88;;;;;;;13.75;100.00;101405.66;5022978;28;20033;-74
2023/08/07 06:56:53;;;;;;;5.55;2.08;;;;;;;13.77;100.00;101400.94;5023829;28;20048;-75
2023/08/07 06:59:18;;;;;;;8.25;2.22;;;;;;;13.79;100.00;101410.41;5022892;28;20540;-73
2023/08/07 07:01:43;;;;;;;11.13;3.03;;;;;;;13.78;100.00;101407.94;5023727;28;20079;-71
2023/08/07 07:04:09;;;;;;;5.22;1.85;;;;;;;13.78;100.00;101414.13;5038480;28;20029;-73
2023/08/07 07:06:34;;;;;;;6.97;1.85;;;;;;;13.74;100.00;101417.44;5023012;28;20064;-76
2023/08/07 07:09:00;;;;;;;3.13;1.30;;;;;;;13.76;100.00;101423.41;5038187;28;20029;-76
2023/08/07 07:11:25;;;;;;;5.30;1.95;;;;;;;13.81;100.00;101429.00;5022578;28;20045;-76
2023/08/07 07:13:52;;;;;;;7.28;1.80;;;;;;;13.81;100.00;101442.41;5021952;28;20124;-75
2023/08/07 07:16:20;;;;;;;7.03;2.00;;;;;;;13.82;100.00;101431.44;5022779;28;20473;-76
2023/08/07 07:18:45;;;;;;;5.32;2.20;;;;;;;13.86;100.00;101429.22;5022040;28;20028;-76
2023/08/07 07:21:11;;;;;;;10.50;2.42;;;;;;;14.02;100.00;101452.13;5022626;28;20464;-75
2023/08/07 07:23:36;;;;;;;10.18;2.88;;;;;;;14.14;100.00;101455.84;5022210;28;20141;-76
2023/08/07 07:26:01;;;;;;;8.43;2.58;;;;;;;14.23;100.00;101438.50;5020763;28;20061;-75
2023/08/07 07:28:27;;;;;;;8.40;1.77;;;;;;;14.40;100.00;101448.81;5022667;28;20065;-75
2023/08/07 07:30:53;;;;;;;11.07;2.28;;;;;;;14.39;100.00;101453.38;5022606;28;20087;-75
2023/08/07 07:33:18;;;;;;;10.50;1.90;;;;;;;14.48;100.00;101452.13;5022661;28;20029;-77
2023/08/07 07:35:43;;;;;;;4.22;2.25;;;;;;;14.55;100.00;101472.81;5021088;28;20052;-74
2023/08/07 07:38:10;;;;;;;4.72;1.42;;;;;;;14.51;100.00;101474.22;5023204;28;20041;-73
2023/08/07 07:40:35;;;;;;;4.68;1.77;;;;;;;14.48;100.00;101470.91;5021844;28;20477;-73
2023/08/07 07:43:01;;;;;;;6.97;1.77;;;;;;;14.71;100.00;101469.69;5021764;28;20037;-73
2023/08/07 07:45:26;;;;;;;11.80;1.83;;;;;;;14.80;100.00;101487.25;5022768;28;21624;-73
2023/08/07 07:47:51;;;;;;;2.83;1.05;;;;;;;14.76;100.00;101491.38;5022616;28;20036;-72
2023/08/07 07:50:17;;;;;;;5.20;2.08;;;;;;;14.72;100.00;101500.84;5021849;28;20030;-72
2023/08/07 07:52:43;;;;;;;3.03;1.35;;;;;;;14.71;100.00;101498.41;5022707;28;20087;-74
2023/08/07 07:55:09;;;;;;;4.15;1.48;;;;;;;14.66;100.00;101510.56;5023377;28;20029;-73
2023/08/07 07:57:35;;;;;;;4.20;1.58;;;;;;;14.64;100.00;101509.94;5026892;28;20052;-75
2023/08/07 08:00:01;;;;;;;4.53;1.52;;;;;;;14.55;100.00;101508.53;5025955;28;20069;-73
2023/08/07 08:02:26;;;;;;;5.07;1.30;;;;;;;14.47;100.00;101504.16;5025631;28;20065;-73
2023/08/07 08:04:52;;;;;;;5.22;2.30;;;;;;;14.28;100.00;101499.63;5025749;28;20029;-74
2023/08/07 08:07:18;;;;;;;4.35;1.45;;;;;;;14.34;100.00;101511.38;5025356;28;20148;-74
2023/08/07 08:09:43;;;;;;;14.85;2.80;;;;;;;14.30;100.00;101505.59;5041057;28;20030;-74
2023/08/07 08:12:08;;;;;;;4.95;1.52;;;;;;;14.33;100.00;101509.72;5025203;28;20039;-72
2023/08/07 08:14:34;;;;;;;6.07;2.65;;;;;;;14.34;100.00;101503.34;5025007;28;20018;-73
2023/08/07 08:16:59;;;;;;;12.82;2.00;;;;;;;14.45;100.00;101500.84;5025411;28;20121;-73
2023/08/07 08:19:25;;;;;;;8.20;2.08;;;;;;;14.55;100.00;101502.34;5025052;28;20029;-75
2023/08/07 08:21:50;;;;;;;7.20;1.77;;;;;;;15.03;100.00;101513.63;5026020;28;20029;-73
2023/08/07 08:24:15;;;;;;;6.40;1.70;;;;;;;16.82;100.00;101517.25;5026106;28;20045;-73
2023/08/07 08:26:41;;;;;;;8.77;2.28;;;;;;;18.76;98.15;101519.06;5025780;28;20473;-73
2023/08/07 08:29:07;;;;;;;5.95;1.88;;;;;;;20.21;86.33;101510.88;5025222;28;20388;-74
2023/08/07 08:31:33;;;;;;;7.00;1.60;;;;;;;21.24;81.43;101513.25;5025325;28;20373;-74
2023/08/07 08:33:59;;;;;;;7.47;2.90;;;;;;;21.95;74.48;101526.84;5023833;28;21109;-74
2023/08/07 08:36:25;;;;;;;6.55;1.73;;;;;;;22.27;71.04;101516.06;5008403;28;20060;-73
2023/08/07 08:38:51;;;;;;;4.32;1.67;;;;;;;22.85;67.99;101526.28;5024557;28;20029;-73
2023/08/07 08:41:17;;;;;;;5.55;1.25;;;;;;;23.59;66.53;101517.13;5025176;28;20020;-73
2023/08/07 08:43:46;;;;;;;3.22;1.17;;;;;;;23.86;62.54;101525.13;5024900;28;20078;-74
2023/08/07 08:46:15;;;;;;;7.88;2.05;;;;;;;23.94;61.84;101519.13;5024860;28;20032;-73
2023/08/07 08:48:46;;;;;;;5.20;2.05;;;;;;;24.12;60.85;101530.63;5025349;28;20052;-73
2023/08/07 08:51:13;;;;;;;6.28;1.75;;;;;;;24.20;59.62;101527.34;5029420;28;20033;-76
2023/08/07 08:53:39;;;;;;;9.68;2.53;;;;;;;23.24;62.28;101528.69;5031720;28;20041;-76
2023/08/07 08:56:06;;;;;;;8.90;2.15;;;;;;;21.57;68.74;101527.81;5031397;28;20396;-76
2023/08/07 08:58:32;;;;;;;5.95;1.90;;;;;;;20.33;75.04;101524.34;5030880;28;20033;-76
2023/08/07 09:00:57;;;;;;;7.78;2.60;;;;;;;19.38;79.44;101513.09;5031011;28;20029;-76
2023/08/07 09:03:24;;;;;;;8.73;1.23;;;;;;;18.73;78.76;101529.47;5030671;28;20057;-76
2023/08/07 09:05:54;;;;;;;7.85;2.78;;;;;;;18.09;80.02;101523.84;5031046;28;20119;-76
2023/08/07 09:08:21;;;;;;;8.70;1.70;;;;;;;17.77;83.82;101526.75;5031155;28;20068;-76
2023/08/07 09:10:46;;;;;;;5.82;1.70;;;;;;;17.66;86.77;101527.50;5030696;28;20473;-76
2023/08/07 09:13:14;;;;;;;10.60;1.58;;;;;;;17.56;83.26;101524.53;5030930;28;20047;-76
2023/08/07 09:15:40;;;;;;;4.50;2.20;;;;;;;17.40;81.51;101534.88;5030927;28;20542;-76
2023/08/07 09:18:09;;;;;;;9.55;1.77;;;;;;;17.31;83.08;101534.34;5030903;28;20502;-76
2023/08/07 09:20:38;;;;;;;5.78;2.50;;;;;;;17.24;80.92;101538.19;5030800;28;20043;-76
2023/08/07 09:23:05;;;;;;;6.78;1.98;;;;;;;17.27;85.29;101540.41;5030594;28;20119;-76
2023/08/07 09:25:32;;;;;;;7.18;2.65;;;;;;;17.26;84.35;101527.97;5030778;28;20034;-74
2023/08/07 09:28:01;;;;;;;6.03;1.98;;;;;;;17.29;81.98;101528.38;5030746;28;20033;-76
2023/08/07 09:30:31;;;;;;;6.75;1.55;;;;;;;17.31;77.37;101531.63;5030596;28;20381;-75
2023/08/07 09:32:58;;;;;;;5.13;2.15;;;;;;;17.37;78.92;101534.47;5030695;28;20065;-75
2023/08/07 09:35:23;;;;;;;5.38;2.33;;;;;;;17.43;78.90;101539.00;5029201;28;20030;-75
2023/08/07 09:37:49;;;;;;;6.15;1.75;;;;;;;17.44;75.45;101546.84;5030599;28;20032;-75
2023/08/07 09:40:15;;;;;;;9.38;2.28;;;;;;;17.44;75.41;101557.63;5029023;28;20041;-76
2023/08/07 09:42:41;;;;;;;5.93;1.77;;;;;;;17.49;74.62;101555.09;5030368;28;20052;-76
2023/08/07 09:45:27;;;;;;;9.40;1.95;;;;;;;17.55;77.45;101557.94;5030294;28;20029;-76
2023/08/07 09:48:03;;;;;;;7.95;2.42;;;;;;;17.56;74.06;101549.63;5030337;28;20129;-75
2023/08/07 09:50:30;;;;;;;3.50;1.58;;;;;;;17.67;75.88;101542.66;5030274;28;20096;-76
2023/08/07 09:52:57;;;;;;;4.82;1.33;;;;;;;17.67;73.33;101548.84;5029961;28;20041;-76
2023/08/07 09:55:23;;;;;;;8.52;2.53;;;;;;;17.67;76.34;101542.66;5028632;28;20420;-76
2023/08/07 09:57:49;;;;;;;6.38;2.08;;;;;;;17.64;72.88;101549.31;5030014;28;20037;-76
2023/08/07 10:00:15;;;;;;;5.15;1.50;;;;;;;17.64;73.81;101556.59;5029716;28;20481;-75
2023/08/07 10:02:42;;;;;;;8.23;1.77;;;;;;;17.75;75.43;101553.94;5028825;28;20425;-76
2023/08/07 10:05:10;;;;;;;4.53;2.30;;;;;;;17.74;72.76;101560.41;5030054;28;20067;-76
2023/08/07 10:07:40;;;;;;;4.25;1.80;;;;;;;17.78;72.53;101563.44;5028745;28;20546;-75
2023/08/07 10:10:08;;;;;;;6.38;1.55;;;;;;;17.76;68.55;101557.44;5029881;28;20041;-75
2023/08/07 10:12:33;;;;;;;5.70;1.80;;;;;;;17.77;68.02;101566.41;5030041;28;20150;-74
2023/08/07 10:15:00;;;;;;;5.40;2.00;;;;;;;17.74;68.80;101557.69;5029798;28;20033;-75
2023/08/07 10:17:27;;;;;;;6.80;1.85;;;;;;;17.87;69.06;101570.22;5028188;28;20112;-75
2023/08/07 10:19:52;;;;;;;7.93;1.90;;;;;;;17.98;71.01;101559.72;5029633;28;20026;-75
2023/08/07 10:22:24;;;;;;;6.22;1.75;;;;;;;18.06;68.73;101572.88;5028315;28;20040;-75
2023/08/07 10:24:52;;;;;;;4.15;1.83;;;;;;;18.21;70.81;101564.34;5029451;28;20050;-75
2023/08/07 10:27:18;;;;;;;3.97;1.83;;;;;;;18.27;69.55;101572.38;5029646;28;20072;-75
2023/08/07 10:29:47;;;;;;;3.85;1.25;;;;;;;18.34;62.97;101578.50;5029755;28;20026;-75
2023/08/07 10:32:15;;;;;;;3.30;2.13;;;;;;;18.29;64.25;101588.34;5029645;28;20473;-75
2023/08/07 10:34:46;;;;;;;6.30;1.60;;;;;;;18.23;65.91;101586.56;5030065;28;20036;-75
2023/08/07 10:37:34;;;;;;;7.93;2.10;;;;;;;18.34;67.71;101578.50;5029686;28;20091;-75
2023/08/07 10:40:03;;;;;;;4.95;1.85;;;;;;;18.34;67.15;101580.41;5028937;28;20040;-75
2023/08/07 10:42:49;;;;;;;3.97;1.42;;;;;;;18.44;65.81;101577.09;5029572;28;20061;-75
2023/08/07 10:45:17;;;;;;;8.55;1.60;;;;;;;18.60;67.54;101582.69;5029481;28;20028;-75
2023/08/07 10:47:42;;;;;;;8.52;3.65;;;;;;;18.82;64.56;101584.84;5029352;28;20100;-75
2023/08/07 10:50:09;;;;;;;4.80;1.83;;;;;;;19.03;68.63;101580.75;5029508;28;20025;-75
2023/08/07 10:52:38;;;;;;;5.63;1.92;;;;;;;19.00;64.28;101587.44;5029125;28;20035;-75
2023/08/07 10:55:13;;;;;;;5.85;2.05;;;;;;;19.16;66.67;101577.81;5029404;28;20044;-76
2023/08/07 10:57:40;;;;;;;3.60;1.55;;;;;;;19.08;64.32;101583.56;5028436;28;20029;-75
2023/08/07 11:00:08;;;;;;;5.45;1.63;;;;;;;18.88;63.69;101589.31;5027880;28;20029;-72
2023/08/07 11:02:39;;;;;;;4.57;1.63;;;;;;;18.89;64.04;101604.50;5027850;28;20116;-75
2023/08/07 11:05:05;;;;;;;4.60;1.73;;;;;;;18.86;59.94;101596.00;5028605;28;20032;-75
2023/08/07 11:07:30;;;;;;;8.00;2.60;;;;;;;19.02;63.87;101592.59;5028657;28;20419;-75
2023/08/07 11:09:58;;;;;;;3.92;1.58;;;;;;;19.06;60.83;101582.97;5028481;28;20124;-74
2023/08/07 11:12:27;;;;;;;6.85;1.67;;;;;;;19.11;61.58;101591.22;5027610;28;20026;-75